Zhetygen Airport

Jump to: basic info | weather | comments

Related pages: nearby airports | nearby navaids

Basic information (top)

Location: lon 43.733101, lat 77.119400, elev 1,638 ft / 499 m msl
Status: small_airport

Weather (top)

Current conditions for Almaty Airport 23nm (43km) S (rec'd 2014/11/01 09:00Z):

UAAA 010900Z VRB01MPS 9999 NSC 13/M04 Q1017 R88/65D NOSIG

Airport forecast for Almaty Airport 23nm (43km) S (rec'd 2014/11/01 06:18Z):

TAF TAF UAAA 010500Z 0106/0206 02006MPS 9999 BKN100 TX11/0108Z TNM02/0201Z 
      BECMG 0111/0112 16004MPS 3000 BR FU 
      TEMPO 0112/0118 0400 
      TEMPO 0118/0203 0300 FZFG

Latest comments (top)

No comments yet for Zhetygen Airport

More... (top)

See also NOTAMs and nearby airports and navaids, or visit the Zhetygen Airport page at the main OurAirports website..